Time;durP1;ratioP1;P1;durP2;ratioP2;P2;SDS_P1;SDS_P2;PMS_P1;PMS_P2;Temp;Humidity;BMP_temperature;BMP_pressure;BME280_temperature;BME280_humidity;BME280_pressure;Samples;Min_cycle;Max_cycle;Signal;HPM_P1;HPM_P2
2023/01/12 00:00:54;;;;;;;;;;;;;;;;;;4196212;28;19920;-36
2023/01/12 00:02:55;;;;;;;;;;;;;;;;;;4196103;28;19920;-37
2023/01/12 00:04:56;;;;;;;;;;;;;;;;;;4209242;28;19973;-37
2023/01/12 00:06:58;;;;;;;;;;;;;;;;;;4178339;28;20368;-37
2023/01/12 00:09:02;;;;;;;;;;;;;;;;;;4188187;28;19924;-36
2023/01/12 00:11:04;;;;;;;;;;;;;;;;;;4190091;28;19921;-36
2023/01/12 00:13:05;;;;;;;;;;;;;;;;;;4195850;28;20310;-36
2023/01/12 00:15:06;;;;;;;;;;;;;;;;;;4195953;28;20271;-37
2023/01/12 00:17:10;;;;;;;;;;;;;;;;;;4195940;28;20316;-37
2023/01/12 00:19:11;;;;;;;;;;;;;;;;;;4195828;28;19920;-36
2023/01/12 00:21:13;;;;;;;;;;;;;;;;;;4209156;28;19927;-37
2023/01/12 00:23:15;;;;;;;;;;;;;;;;;;4178045;28;19933;-37
2023/01/12 00:25:16;;;;;;;;;;;;;;;;;;4195610;28;19973;-37
2023/01/12 00:27:18;;;;;;;;;;;;;;;;;;4205132;28;19920;-36
2023/01/12 00:29:20;;;;;;;;;;;;;;;;;;4200211;28;19924;-36
2023/01/12 00:31:21;;;;;;;;;;;;;;;;;;4209550;28;19966;-37
2023/01/12 00:33:22;;;;;;;;;;;;;;;;;;4196162;28;19920;-36
2023/01/12 00:35:23;;;;;;;;;;;;;;;;;;4185492;28;19927;-37
2023/01/12 00:37:25;;;;;;;;;;;;;;;;;;4201220;28;20304;-37
2023/01/12 00:39:26;;;;;;;;;;;;;;;;;;4209880;28;19973;-36
2023/01/12 00:46:08;;;;;;;;;;;;;;;;;;4209077;28;19920;-37
2023/01/12 00:48:11;;;;;;;;;;;;;;;;;;4196730;28;19929;-36
2023/01/12 00:50:13;;;;;;;;;;;;;;;;;;4181037;28;19975;-36
2023/01/12 00:52:15;;;;;;;;;;;;;;;;;;4181094;28;20338;-37
2023/01/12 00:54:16;;;;;;;;;;;;;;;;;;4198084;28;19985;-36
2023/01/12 00:56:17;;;;;;;;;;;;;;;;;;4185945;28;19924;-36
2023/01/12 00:58:18;;;;;;;;;;;;;;;;;;4205210;28;19920;-36
2023/01/12 01:00:19;;;;;;;;;;;;;;;;;;4205843;28;19928;-37
2023/01/12 01:02:20;;;;;;;;;;;;;;;;;;4211615;28;19927;-36
2023/01/12 01:04:21;;;;;;;;;;;;;;;;;;4199526;28;19920;-37
2023/01/12 01:06:23;;;;;;;;;;;;;;;;;;4198961;28;19927;-36
2023/01/12 01:08:23;;;;;;;;;;;;;;;;;;4198884;28;19928;-36
2023/01/12 01:10:25;;;;;;;;;;;;;;;;;;4198221;28;19921;-37
2023/01/12 01:12:25;;;;;;;;;;;;;;;;;;4198645;28;20360;-37
2023/01/12 01:14:26;;;;;;;;;;;;;;;;;;4184915;28;19986;-36
2023/01/12 01:16:28;;;;;;;;;;;;;;;;;;4208264;28;19986;-37
2023/01/12 01:18:30;;;;;;;;;;;;;;;;;;4198622;28;19928;-36
2023/01/12 01:20:35;;;;;;;;;;;;;;;;;;4198474;28;19920;-36
2023/01/12 01:22:36;;;;;;;;;;;;;;;;;;4185421;28;19920;-37
2023/01/12 01:24:37;;;;;;;;;;;;;;;;;;4204620;28;19946;-36
2023/01/12 01:26:39;;;;;;;;;;;;;;;;;;4205587;28;19920;-36
2023/01/12 01:28:40;;;;;;;;;;;;;;;;;;4211576;28;19924;-36
2023/01/12 01:30:41;;;;;;;;;;;;;;;;;;4203733;28;19920;-37
2023/01/12 01:32:42;;;;;;;;;;;;;;;;;;4206853;28;19920;-37
2023/01/12 01:34:45;;;;;;;;;;;;;;;;;;4209699;28;20402;-37
2023/01/12 01:36:46;;;;;;;;;;;;;;;;;;4200948;28;20352;-36
2023/01/12 01:38:48;;;;;;;;;;;;;;;;;;4210596;28;19990;-37
2023/01/12 01:40:49;;;;;;;;;;;;;;;;;;4205151;28;19924;-37
2023/01/12 01:42:50;;;;;;;;;;;;;;;;;;4196817;28;19974;-36
2023/01/12 01:44:52;;;;;;;;;;;;;;;;;;4200635;28;19920;-37
2023/01/12 01:46:54;;;;;;;;;;;;;;;;;;4201519;28;19941;-36
2023/01/12 01:48:56;;;;;;;;;;;;;;;;;;4189997;28;19928;-35
2023/01/12 01:50:57;;;;;;;;;;;;;;;;;;4180336;28;19924;-37
2023/01/12 01:53:00;;;;;;;;;;;;;;;;;;4180212;28;19920;-37
2023/01/12 01:55:05;;;;;;;;;;;;;;;;;;4197519;28;19931;-37
2023/01/12 01:57:06;;;;;;;;;;;;;;;;;;4198279;28;19920;-37
2023/01/12 01:59:12;;;;;;;;;;;;;;;;;;4179688;28;19948;-36
2023/01/12 02:01:13;;;;;;;;;;;;;;;;;;4211442;28;19920;-36
2023/01/12 02:03:14;;;;;;;;;;;;;;;;;;4200248;28;19928;-37
2023/01/12 02:05:17;;;;;;;;;;;;;;;;;;4208277;28;20411;-36
2023/01/12 02:07:19;;;;;;;;;;;;;;;;;;4180533;28;19974;-36
2023/01/12 02:09:21;;;;;;;;;;;;;;;;;;4197101;28;20020;-35
2023/01/12 02:16:21;;;;;;;;;;;;;;;;;;4197698;28;19982;-36
2023/01/12 02:18:31;;;;;;;;;;;;;;;;;;4197201;28;19966;-36
2023/01/12 02:20:36;;;;;;;;;;;;;;;;;;4186652;28;19978;-36
2023/01/12 02:22:56;;;;;;;;;;;;;;;;;;4203506;28;19920;-37
2023/01/12 02:25:09;;;;;;;;;;;;;;;;;;4178813;28;19948;-36
2023/01/12 02:27:29;;;;;;;;;;;;;;;;;;4197493;28;19935;-36
2023/01/12 02:29:36;;;;;;;;;;;;;;;;;;4179569;28;20404;-37
2023/01/12 02:31:40;;;;;;;;;;;;;;;;;;4184424;28;19924;-37
2023/01/12 02:33:50;;;;;;;;;;;;;;;;;;4197285;28;20376;-37
2023/01/12 02:36:20;;;;;;;;;;;;;;;;;;4197427;28;19946;-36
2023/01/12 02:38:25;;;;;;;;;;;;;;;;;;4176574;28;19920;-37
2023/01/12 02:40:37;;;;;;;;;;;;;;;;;;4196649;28;20332;-36
2023/01/12 02:42:50;;;;;;;;;;;;;;;;;;4179770;28;19929;-37
2023/01/12 02:44:59;;;;;;;;;;;;;;;;;;4151244;28;19921;-37
2023/01/12 02:47:00;;;;;;;;;;;;;;;;;;4162925;28;20368;-37
2023/01/12 02:49:09;;;;;;;;;;;;;;;;;;4191841;28;19920;-36
2023/01/12 02:51:12;;;;;;;;;;;;;;;;;;4179136;28;19921;-36
2023/01/12 02:53:26;;;;;;;;;;;;;;;;;;4184530;28;20307;-36
2023/01/12 02:55:27;;;;;;;;;;;;;;;;;;4202952;28;19920;-36
2023/01/12 02:57:28;;;;;;;;;;;;;;;;;;4162921;28;19921;-36
2023/01/12 02:59:34;;;;;;;;;;;;;;;;;;4178730;28;19929;-37
2023/01/12 03:01:35;;;;;;;;;;;;;;;;;;4185463;28;19920;-36
2023/01/12 03:03:38;;;;;;;;;;;;;;;;;;4179207;28;19925;-36
2023/01/12 03:05:40;;;;;;;;;;;;;;;;;;4195679;28;19928;-36
2023/01/12 03:07:48;;;;;;;;;;;;;;;;;;4192103;28;20001;-36
2023/01/12 03:09:53;;;;;;;;;;;;;;;;;;4196755;28;19924;-36
2023/01/12 03:11:54;;;;;;;;;;;;;;;;;;4196085;28;20276;-37
2023/01/12 03:13:56;;;;;;;;;;;;;;;;;;4178913;28;19921;-36
2023/01/12 03:15:57;;;;;;;;;;;;;;;;;;4165766;28;19924;-36
2023/01/12 03:17:59;;;;;;;;;;;;;;;;;;4179191;28;19928;-36
2023/01/12 03:20:03;;;;;;;;;;;;;;;;;;4178758;28;19925;-36
2023/01/12 03:22:07;;;;;;;;;;;;;;;;;;4178988;28;19974;-36
2023/01/12 03:24:09;;;;;;;;;;;;;;;;;;4209690;28;19928;-37
2023/01/12 03:26:10;;;;;;;;;;;;;;;;;;4178808;28;19998;-36
2023/01/12 03:28:12;;;;;;;;;;;;;;;;;;4205946;28;19946;-37
2023/01/12 03:30:15;;;;;;;;;;;;;;;;;;4180686;28;19975;-37
2023/01/12 03:32:18;;;;;;;;;;;;;;;;;;4167263;28;19967;-36
2023/01/12 03:34:20;;;;;;;;;;;;;;;;;;4188212;28;20307;-36
2023/01/12 03:36:23;;;;;;;;;;;;;;;;;;4196491;28;19939;-36
2023/01/12 03:38:43;;;;;;;;;;;;;;;;;;4191982;28;19928;-37
2023/01/12 03:40:45;;;;;;;;;;;;;;;;;;4195874;28;19927;-37
2023/01/12 03:42:49;;;;;;;;;;;;;;;;;;4178392;28;19932;-37
2023/01/12 03:44:58;;;;;;;;;;;;;;;;;;4196036;28;20280;-36
2023/01/12 03:47:02;;;;;;;;;;;;;;;;;;4190855;28;19955;-37
2023/01/12 03:49:15;;;;;;;;;;;;;;;;;;4178474;28;19954;-36
2023/01/12 03:51:20;;;;;;;;;;;;;;;;;;4178369;28;19921;-37
2023/01/12 03:53:21;;;;;;;;;;;;;;;;;;4178298;28;20260;-37
2023/01/12 03:55:23;;;;;;;;;;;;;;;;;;4177937;28;20019;-37
2023/01/12 03:57:24;;;;;;;;;;;;;;;;;;4196190;28;19920;-37
2023/01/12 03:59:25;;;;;;;;;;;;;;;;;;4190406;28;20287;-37
2023/01/12 04:01:26;;;;;;;;;;;;;;;;;;4198664;28;20110;-37
2023/01/12 04:03:27;;;;;;;;;;;;;;;;;;4208186;28;19970;-37
2023/01/12 04:05:28;;;;;;;;;;;;;;;;;;4196172;28;20113;-37
2023/01/12 04:07:29;;;;;;;;;;;;;;;;;;4196391;28;19935;-36
2023/01/12 04:09:31;;;;;;;;;;;;;;;;;;4187926;28;19920;-36
2023/01/12 04:13:52;;;;;;;;;;;;;;;;;;4201991;28;19920;-37
2023/01/12 04:15:53;;;;;;;;;;;;;;;;;;4212893;28;19920;-36
2023/01/12 04:17:54;;;;;;;;;;;;;;;;;;4200660;28;20061;-36
2023/01/12 04:19:55;;;;;;;;;;;;;;;;;;4209269;28;19920;-36
2023/01/12 04:24:16;;;;;;;;;;;;;;;;;;4198209;28;19924;-36
2023/01/12 04:26:17;;;;;;;;;;;;;;;;;;4199307;28;19929;-36
2023/01/12 04:28:18;;;;;;;;;;;;;;;;;;4213177;28;19982;-36
2023/01/12 04:30:22;;;;;;;;;;;;;;;;;;4205463;28;19992;-36
2023/01/12 04:32:23;;;;;;;;;;;;;;;;;;4206059;28;20369;-36
2023/01/12 04:34:24;;;;;;;;;;;;;;;;;;4181350;28;19928;-37
2023/01/12 04:36:26;;;;;;;;;;;;;;;;;;4201512;28;19924;-37
2023/01/12 04:38:27;;;;;;;;;;;;;;;;;;4210176;28;20296;-36
2023/01/12 04:40:28;;;;;;;;;;;;;;;;;;4180989;28;19921;-37
2023/01/12 04:44:49;;;;;;;;;;;;;;;;;;4186417;28;19974;-36
2023/01/12 04:46:50;;;;;;;;;;;;;;;;;;4187844;28;19932;-36
2023/01/12 04:48:51;;;;;;;;;;;;;;;;;;4205743;28;19920;-36
2023/01/12 04:50:52;;;;;;;;;;;;;;;;;;4198876;28;20369;-36
2023/01/12 04:52:54;;;;;;;;;;;;;;;;;;4198732;28;19947;-36
2023/01/12 04:54:54;;;;;;;;;;;;;;;;;;4198375;28;19920;-36
2023/01/12 04:56:55;;;;;;;;;;;;;;;;;;4199021;28;19967;-35
2023/01/12 04:58:59;;;;;;;;;;;;;;;;;;4197880;28;19974;-35
2023/01/12 05:01:08;;;;;;;;;;;;;;;;;;4200440;28;19920;-37
2023/01/12 05:03:10;;;;;;;;;;;;;;;;;;4191348;28;20005;-36
2023/01/12 05:05:11;;;;;;;;;;;;;;;;;;4208004;28;19966;-36
2023/01/12 05:07:13;;;;;;;;;;;;;;;;;;4185305;28;19959;-37
2023/01/12 05:11:33;;;;;;;;;;;;;;;;;;4206388;28;20363;-37
2023/01/12 05:13:34;;;;;;;;;;;;;;;;;;4201449;28;20336;-36
2023/01/12 05:15:35;;;;;;;;;;;;;;;;;;4207453;28;20326;-37
2023/01/12 05:17:36;;;;;;;;;;;;;;;;;;4183218;28;19920;-37
2023/01/12 05:19:38;;;;;;;;;;;;;;;;;;4198375;28;19974;-37
2023/01/12 05:21:39;;;;;;;;;;;;;;;;;;4198384;28;19993;-37
2023/01/12 05:23:40;;;;;;;;;;;;;;;;;;4198893;28;19936;-36
2023/01/12 05:25:41;;;;;;;;;;;;;;;;;;4211229;28;20371;-39
2023/01/12 05:27:42;;;;;;;;;;;;;;;;;;4198542;28;19920;-37
2023/01/12 05:29:43;;;;;;;;;;;;;;;;;;4198417;28;20011;-37
2023/01/12 05:31:44;;;;;;;;;;;;;;;;;;4211751;28;19959;-37
2023/01/12 05:33:45;;;;;;;;;;;;;;;;;;4197874;28;20291;-36
2023/01/12 05:35:46;;;;;;;;;;;;;;;;;;4198299;28;19920;-36
2023/01/12 05:37:48;;;;;;;;;;;;;;;;;;4198293;28;19924;-36
2023/01/12 05:39:49;;;;;;;;;;;;;;;;;;4197749;28;20380;-37
2023/01/12 05:44:11;;;;;;;;;;;;;;;;;;4180336;28;19920;-36
2023/01/12 05:46:12;;;;;;;;;;;;;;;;;;4198423;28;20350;-36
2023/01/12 05:48:13;;;;;;;;;;;;;;;;;;4211630;28;19920;-37
2023/01/12 05:50:14;;;;;;;;;;;;;;;;;;4180056;28;20292;-37
2023/01/12 05:52:16;;;;;;;;;;;;;;;;;;4198146;28;20303;-37
2023/01/12 05:54:17;;;;;;;;;;;;;;;;;;4197663;28;20391;-36
2023/01/12 05:56:19;;;;;;;;;;;;;;;;;;4194765;28;19920;-36
2023/01/12 05:58:21;;;;;;;;;;;;;;;;;;4184609;28;19950;-36
2023/01/12 06:00:22;;;;;;;;;;;;;;;;;;4199291;28;20306;-36
2023/01/12 06:02:24;;;;;;;;;;;;;;;;;;4188579;28;20365;-36
2023/01/12 06:04:25;;;;;;;;;;;;;;;;;;4208638;28;19931;-36
2023/01/12 06:06:29;;;;;;;;;;;;;;;;;;4196472;28;19924;-36
2023/01/12 06:08:30;;;;;;;;;;;;;;;;;;4193003;28;20303;-37
2023/01/12 06:10:33;;;;;;;;;;;;;;;;;;4184020;28;20284;-37
2023/01/12 06:14:54;;;;;;;;;;;;;;;;;;4197363;28;19924;-36
2023/01/12 06:16:55;;;;;;;;;;;;;;;;;;4195596;28;19924;-37
2023/01/12 06:18:56;;;;;;;;;;;;;;;;;;4177710;28;19924;-35
2023/01/12 06:20:58;;;;;;;;;;;;;;;;;;4195604;28;19947;-36
2023/01/12 06:23:03;;;;;;;;;;;;;;;;;;4209543;28;19924;-36
2023/01/12 06:25:05;;;;;;;;;;;;;;;;;;4181908;28;19932;-40
2023/01/12 06:27:06;;;;;;;;;;;;;;;;;;4202395;28;20353;-36
2023/01/12 06:29:07;;;;;;;;;;;;;;;;;;4202184;28;19927;-36
2023/01/12 06:31:09;;;;;;;;;;;;;;;;;;4190487;28;20053;-36
2023/01/12 06:33:12;;;;;;;;;;;;;;;;;;4177428;28;19929;-36
2023/01/12 06:35:13;;;;;;;;;;;;;;;;;;4195129;28;20401;-36
2023/01/12 06:37:15;;;;;;;;;;;;;;;;;;4177117;28;19925;-36
2023/01/12 06:39:16;;;;;;;;;;;;;;;;;;4176915;28;20388;-36
2023/01/12 06:43:36;;;;;;;;;;;;;;;;;;4194568;28;19924;-36
2023/01/12 06:45:37;;;;;;;;;;;;;;;;;;4193029;28;20311;-36
2023/01/12 06:47:45;;;;;;;;;;;;;;;;;;4194240;28;20391;-33
2023/01/12 06:49:46;;;;;;;;;;;;;;;;;;4199021;28;19989;-36
2023/01/12 06:51:50;;;;;;;;;;;;;;;;;;4196177;28;20168;-35
2023/01/12 06:53:51;;;;;;;;;;;;;;;;;;4186820;28;19924;-36
2023/01/12 06:55:52;;;;;;;;;;;;;;;;;;4160946;28;20387;-34
2023/01/12 06:57:53;;;;;;;;;;;;;;;;;;4174362;28;20454;-37
2023/01/12 06:59:55;;;;;;;;;;;;;;;;;;4186428;28;20015;-36
2023/01/12 07:01:56;;;;;;;;;;;;;;;;;;4186868;28;19924;-36
2023/01/12 07:03:57;;;;;;;;;;;;;;;;;;4181695;28;19932;-36
2023/01/12 07:05:58;;;;;;;;;;;;;;;;;;4187235;28;20437;-36
2023/01/12 07:07:59;;;;;;;;;;;;;;;;;;4192628;28;19928;-36
2023/01/12 07:10:00;;;;;;;;;;;;;;;;;;4188813;28;20031;-37
2023/01/12 07:12:02;;;;;;;;;;;;;;;;;;4182789;28;19981;-39
2023/01/12 07:14:03;;;;;;;;;;;;;;;;;;4181798;28;20383;-36
2023/01/12 07:16:04;;;;;;;;;;;;;;;;;;4182249;28;19987;-36
2023/01/12 07:18:05;;;;;;;;;;;;;;;;;;4182072;28;19928;-36
2023/01/12 07:20:07;;;;;;;;;;;;;;;;;;4181417;28;19928;-33
2023/01/12 07:22:08;;;;;;;;;;;;;;;;;;4182351;28;20478;-36
2023/01/12 07:24:09;;;;;;;;;;;;;;;;;;4190700;28;20248;-36
2023/01/12 07:26:10;;;;;;;;;;;;;;;;;;4190420;28;20006;-35
2023/01/12 07:28:12;;;;;;;;;;;;;;;;;;4170210;28;19931;-36
2023/01/12 07:30:13;;;;;;;;;;;;;;;;;;4182069;28;20283;-35
2023/01/12 07:32:14;;;;;;;;;;;;;;;;;;4185056;28;19974;-35
2023/01/12 07:34:16;;;;;;;;;;;;;;;;;;4190250;28;19924;-35
2023/01/12 07:36:17;;;;;;;;;;;;;;;;;;4187949;28;19928;-34
2023/01/12 07:38:18;;;;;;;;;;;;;;;;;;4183400;28;20383;-36
2023/01/12 07:40:19;;;;;;;;;;;;;;;;;;4159966;28;19965;-35
2023/01/12 07:42:23;;;;;;;;;;;;;;;;;;4171113;28;19930;-35
2023/01/12 07:44:26;;;;;;;;;;;;;;;;;;4162199;28;19932;-36
2023/01/12 07:46:27;;;;;;;;;;;;;;;;;;4183334;28;20693;-35
2023/01/12 07:48:28;;;;;;;;;;;;;;;;;;4184708;28;20080;-36
2023/01/12 07:50:29;;;;;;;;;;;;;;;;;;4162957;28;19928;-36
2023/01/12 07:52:30;;;;;;;;;;;;;;;;;;4153193;28;20062;-37
2023/01/12 07:54:32;;;;;;;;;;;;;;;;;;4177146;28;19929;-36
2023/01/12 07:56:33;;;;;;;;;;;;;;;;;;4164933;28;19955;-35
2023/01/12 07:58:36;;;;;;;;;;;;;;;;;;4148937;28;19936;-34
2023/01/12 08:00:37;;;;;;;;;;;;;;;;;;4154327;28;19935;-35
2023/01/12 08:02:38;;;;;;;;;;;;;;;;;;4168489;28;19948;-34
2023/01/12 08:04:40;;;;;;;;;;;;;;;;;;4143812;28;20635;-35
2023/01/12 08:06:41;;;;;;;;;;;;;;;;;;4177844;28;20376;-34
2023/01/12 08:08:42;;;;;;;;;;;;;;;;;;4180648;28;20213;-35
2023/01/12 08:10:46;;;;;;;;;;;;;;;;;;4180965;28;20025;-34
2023/01/12 08:12:49;;;;;;;;;;;;;;;;;;4175271;28;19924;-36
2023/01/12 08:14:50;;;;;;;;;;;;;;;;;;4178790;28;19936;-35
2023/01/12 08:16:52;;;;;;;;;;;;;;;;;;4178757;28;19929;-36
2023/01/12 08:18:55;;;;;;;;;;;;;;;;;;4156519;28;19928;-35
2023/01/12 08:20:57;;;;;;;;;;;;;;;;;;4169723;28;20315;-36
2023/01/12 08:22:59;;;;;;;;;;;;;;;;;;4174322;28;20567;-36
2023/01/12 08:25:05;;;;;;;;;;;;;;;;;;4150558;28;20350;-36
2023/01/12 08:27:06;;;;;;;;;;;;;;;;;;4162196;28;20773;-35
2023/01/12 08:29:07;;;;;;;;;;;;;;;;;;4158601;28;21279;-34
2023/01/12 08:31:09;;;;;;;;;;;;;;;;;;4164790;28;19937;-33
2023/01/12 08:33:10;;;;;;;;;;;;;;;;;;4180655;28;19928;-36
2023/01/12 08:35:13;;;;;;;;;;;;;;;;;;4166360;28;20399;-35
2023/01/12 08:37:15;;;;;;;;;;;;;;;;;;4173727;28;19928;-36
2023/01/12 08:39:16;;;;;;;;;;;;;;;;;;4125338;28;21094;-34
2023/01/12 08:41:32;;;;;;;;;;;;;;;;;;4179801;28;20002;-35
2023/01/12 08:45:54;;;;;;;;;;;;;;;;;;4167388;28;19994;-36
2023/01/12 08:47:55;;;;;;;;;;;;;;;;;;4137050;28;20478;-36
2023/01/12 08:49:58;;;;;;;;;;;;;;;;;;4160389;28;21413;-35
2023/01/12 08:51:59;;;;;;;;;;;;;;;;;;4167208;28;19932;-34
2023/01/12 08:54:01;;;;;;;;;;;;;;;;;;4166525;28;20280;-34
2023/01/12 08:56:02;;;;;;;;;;;;;;;;;;4171843;28;20057;-36
2023/01/12 08:58:03;;;;;;;;;;;;;;;;;;4174149;28;19928;-36
2023/01/12 09:00:05;;;;;;;;;;;;;;;;;;4170240;28;19928;-35
2023/01/12 09:02:06;;;;;;;;;;;;;;;;;;4152210;28;19998;-36
2023/01/12 09:04:07;;;;;;;;;;;;;;;;;;4160990;28;19928;-36
2023/01/12 09:06:13;;;;;;;;;;;;;;;;;;4166885;28;19974;-36
2023/01/12 09:08:14;;;;;;;;;;;;;;;;;;4170702;28;20026;-34
2023/01/12 09:10:15;;;;;;;;;;;;;;;;;;4171481;28;20436;-34
2023/01/12 09:12:17;;;;;;;;;;;;;;;;;;4152088;28;20021;-34
2023/01/12 09:14:18;;;;;;;;;;;;;;;;;;4156830;28;19924;-34
2023/01/12 09:16:20;;;;;;;;;;;;;;;;;;4158391;28;19953;-33
2023/01/12 09:18:21;;;;;;;;;;;;;;;;;;4153475;28;19933;-33
2023/01/12 09:20:23;;;;;;;;;;;;;;;;;;4154947;28;20540;-35
2023/01/12 09:22:25;;;;;;;;;;;;;;;;;;4155636;28;19959;-35
2023/01/12 09:24:26;;;;;;;;;;;;;;;;;;4156243;28;20360;-34
2023/01/12 09:26:30;;;;;;;;;;;;;;;;;;4160562;28;19928;-35
2023/01/12 09:28:32;;;;;;;;;;;;;;;;;;4157271;28;19936;-35
2023/01/12 09:30:33;;;;;;;;;;;;;;;;;;4155853;28;20439;-35
2023/01/12 09:32:34;;;;;;;;;;;;;;;;;;4136039;28;19928;-34
2023/01/12 09:34:35;;;;;;;;;;;;;;;;;;4157101;28;19983;-37
2023/01/12 09:36:38;;;;;;;;;;;;;;;;;;4149420;28;19928;-35
2023/01/12 09:38:40;;;;;;;;;;;;;;;;;;4146274;28;20347;-33
2023/01/12 09:40:42;;;;;;;;;;;;;;;;;;4151002;28;19973;-36
2023/01/12 09:47:40;;;;;;;;;;;;;;;;;;4156407;28;19948;-33
2023/01/12 09:49:42;;;;;;;;;;;;;;;;;;4158882;28;19929;-36
2023/01/12 09:51:47;;;;;;;;;;;;;;;;;;4158788;28;20027;-33
2023/01/12 09:53:49;;;;;;;;;;;;;;;;;;4128706;28;21483;-34
2023/01/12 09:55:50;;;;;;;;;;;;;;;;;;4158729;28;19982;-33
2023/01/12 09:57:51;;;;;;;;;;;;;;;;;;4156886;28;19925;-34
2023/01/12 10:00:02;;;;;;;;;;;;;;;;;;4151449;28;19924;-34
2023/01/12 10:02:12;;;;;;;;;;;;;;;;;;4154702;28;20460;-33
2023/01/12 10:04:14;;;;;;;;;;;;;;;;;;4154550;28;19970;-32
2023/01/12 10:06:16;;;;;;;;;;;;;;;;;;4150132;28;19931;-34
2023/01/12 10:08:22;;;;;;;;;;;;;;;;;;4156585;28;19985;-36
2023/01/12 10:10:24;;;;;;;;;;;;;;;;;;4139667;28;20347;-34
2023/01/12 10:12:29;;;;;;;;;;;;;;;;;;4155341;28;19932;-36
2023/01/12 10:14:42;;;;;;;;;;;;;;;;;;4139375;28;19955;-34
2023/01/12 10:16:50;;;;;;;;;;;;;;;;;;4155221;28;19928;-36
2023/01/12 10:18:51;;;;;;;;;;;;;;;;;;4140863;28;19982;-36
2023/01/12 10:20:52;;;;;;;;;;;;;;;;;;4139385;28;19983;-36
2023/01/12 10:23:08;;;;;;;;;;;;;;;;;;4134365;28;20006;-36
2023/01/12 10:25:12;;;;;;;;;;;;;;;;;;4157825;28;19974;-37
2023/01/12 10:27:14;;;;;;;;;;;;;;;;;;4156427;28;19982;-33
2023/01/12 10:29:15;;;;;;;;;;;;;;;;;;4131866;28;19925;-34
2023/01/12 10:31:21;;;;;;;;;;;;;;;;;;4155786;28;20823;-34
2023/01/12 10:33:26;;;;;;;;;;;;;;;;;;4158453;28;19928;-36
2023/01/12 10:35:27;;;;;;;;;;;;;;;;;;4162031;28;19925;-37
2023/01/12 10:37:28;;;;;;;;;;;;;;;;;;4161316;28;19925;-37
2023/01/12 10:39:32;;;;;;;;;;;;;;;;;;4161696;28;20066;-35
2023/01/12 10:41:34;;;;;;;;;;;;;;;;;;4162886;28;19929;-35
2023/01/12 10:43:35;;;;;;;;;;;;;;;;;;4161529;28;20736;-36
2023/01/12 10:45:37;;;;;;;;;;;;;;;;;;4143719;28;19975;-36
2023/01/12 10:47:38;;;;;;;;;;;;;;;;;;4147073;28;19933;-35
2023/01/12 10:49:39;;;;;;;;;;;;;;;;;;4155004;28;19980;-35
2023/01/12 10:51:50;;;;;;;;;;;;;;;;;;4164998;28;19928;-36
2023/01/12 10:54:01;;;;;;;;;;;;;;;;;;4146047;28;19964;-36
2023/01/12 10:56:35;;;;;;;;;;;;;;;;;;4139942;28;19929;-36
2023/01/12 10:58:37;;;;;;;;;;;;;;;;;;4120750;28;20655;-34
2023/01/12 11:00:38;;;;;;;;;;;;;;;;;;4162652;28;19921;-37
2023/01/12 11:02:41;;;;;;;;;;;;;;;;;;4163539;28;20286;-36
2023/01/12 11:04:44;;;;;;;;;;;;;;;;;;4142404;28;20396;-37
2023/01/12 11:07:04;;;;;;;;;;;;;;;;;;4144862;28;20344;-36
2023/01/12 11:09:20;;;;;;;;;;;;;;;;;;4159201;28;20588;-37
2023/01/12 11:11:28;;;;;;;;;;;;;;;;;;4148198;28;20356;-37
2023/01/12 11:13:35;;;;;;;;;;;;;;;;;;4181779;28;20455;-36
2023/01/12 11:15:39;;;;;;;;;;;;;;;;;;4165844;28;20015;-33
2023/01/12 11:17:46;;;;;;;;;;;;;;;;;;4164646;28;19936;-35
2023/01/12 11:19:48;;;;;;;;;;;;;;;;;;4154692;28;19928;-36
2023/01/12 11:21:50;;;;;;;;;;;;;;;;;;4182166;28;19928;-36
2023/01/12 11:23:56;;;;;;;;;;;;;;;;;;4177858;28;19970;-36
2023/01/12 11:25:58;;;;;;;;;;;;;;;;;;4177288;28;19924;-36
2023/01/12 11:27:59;;;;;;;;;;;;;;;;;;4175990;28;19953;-35
2023/01/12 11:30:06;;;;;;;;;;;;;;;;;;4160461;28;20002;-36
2023/01/12 11:32:12;;;;;;;;;;;;;;;;;;4151520;28;19928;-38
2023/01/12 11:34:15;;;;;;;;;;;;;;;;;;4180614;28;19928;-37
2023/01/12 11:36:18;;;;;;;;;;;;;;;;;;4179561;28;19932;-35
2023/01/12 11:38:31;;;;;;;;;;;;;;;;;;4182432;28;19932;-33
2023/01/12 11:40:33;;;;;;;;;;;;;;;;;;4184292;28;20036;-37
2023/01/12 11:44:53;;;;;;;;;;;;;;;;;;4187066;28;19936;-37
2023/01/12 11:47:04;;;;;;;;;;;;;;;;;;4184623;28;19980;-36
2023/01/12 11:49:11;;;;;;;;;;;;;;;;;;4178316;28;19935;-35
2023/01/12 11:51:12;;;;;;;;;;;;;;;;;;4175749;28;20010;-37
2023/01/12 11:53:18;;;;;;;;;;;;;;;;;;4177613;28;19928;-35
2023/01/12 11:55:45;;;;;;;;;;;;;;;;;;4176443;28;19928;-38
2023/01/12 11:57:52;;;;;;;;;;;;;;;;;;4173043;28;21256;-37
2023/01/12 12:00:03;;;;;;;;;;;;;;;;;;4176781;28;19928;-36
2023/01/12 12:02:20;;;;;;;;;;;;;;;;;;4167302;28;20572;-36
2023/01/12 12:04:31;;;;;;;;;;;;;;;;;;4172914;28;20432;-36
2023/01/12 12:06:36;;;;;;;;;;;;;;;;;;4175264;28;20454;-36
2023/01/12 12:08:42;;;;;;;;;;;;;;;;;;4181228;28;20383;-33
2023/01/12 12:10:47;;;;;;;;;;;;;;;;;;4179209;28;19928;-36
2023/01/12 12:12:48;;;;;;;;;;;;;;;;;;4178775;28;19971;-37
2023/01/12 12:15:13;;;;;;;;;;;;;;;;;;4172414;28;19970;-36
2023/01/12 12:17:17;;;;;;;;;;;;;;;;;;4174990;28;19958;-34
2023/01/12 12:19:31;;;;;;;;;;;;;;;;;;4171713;28;20488;-35
2023/01/12 12:21:33;;;;;;;;;;;;;;;;;;4168454;28;19932;-38
2023/01/12 12:23:50;;;;;;;;;;;;;;;;;;4179586;28;19924;-35
2023/01/12 12:25:55;;;;;;;;;;;;;;;;;;4176827;28;21234;-37
2023/01/12 12:28:11;;;;;;;;;;;;;;;;;;4178785;28;19928;-37
2023/01/12 12:30:22;;;;;;;;;;;;;;;;;;4179295;28;19932;-37
2023/01/12 12:32:33;;;;;;;;;;;;;;;;;;4177441;28;20400;-37
2023/01/12 12:34:40;;;;;;;;;;;;;;;;;;4179138;28;19928;-37
2023/01/12 12:36:56;;;;;;;;;;;;;;;;;;4179338;28;19928;-37
2023/01/12 12:39:17;;;;;;;;;;;;;;;;;;4180087;28;19944;-35
2023/01/12 12:45:59;;;;;;;;;;;;;;;;;;4185161;28;19925;-37
2023/01/12 12:48:03;;;;;;;;;;;;;;;;;;4197741;28;20387;-37
2023/01/12 12:50:04;;;;;;;;;;;;;;;;;;4182914;28;20201;-38
2023/01/12 12:52:06;;;;;;;;;;;;;;;;;;4174384;28;20303;-35
2023/01/12 12:54:10;;;;;;;;;;;;;;;;;;4188330;28;20298;-36
2023/01/12 12:56:13;;;;;;;;;;;;;;;;;;4176307;28;19974;-38
2023/01/12 12:58:20;;;;;;;;;;;;;;;;;;4177400;28;19967;-37
2023/01/12 13:00:31;;;;;;;;;;;;;;;;;;4180709;28;19936;-40
2023/01/12 13:02:52;;;;;;;;;;;;;;;;;;4180921;28;19948;-35
2023/01/12 13:04:54;;;;;;;;;;;;;;;;;;4199049;28;19928;-37
2023/01/12 13:06:55;;;;;;;;;;;;;;;;;;4183578;28;19929;-38
2023/01/12 13:09:24;;;;;;;;;;;;;;;;;;4167799;28;20475;-35
2023/01/12 13:11:44;;;;;;;;;;;;;;;;;;4163556;28;19951;-37
2023/01/12 13:14:04;;;;;;;;;;;;;;;;;;4182980;28;19924;-36
2023/01/12 13:16:18;;;;;;;;;;;;;;;;;;4183705;28;20351;-37
2023/01/12 13:18:48;;;;;;;;;;;;;;;;;;4186527;28;20009;-38
2023/01/12 13:20:51;;;;;;;;;;;;;;;;;;4144122;28;20007;-36
2023/01/12 13:22:52;;;;;;;;;;;;;;;;;;4181923;28;19928;-38
2023/01/12 13:24:58;;;;;;;;;;;;;;;;;;4195481;28;19942;-38
2023/01/12 13:27:00;;;;;;;;;;;;;;;;;;4181552;28;19935;-37
2023/01/12 13:29:20;;;;;;;;;;;;;;;;;;4184544;28;19977;-38
2023/01/12 13:31:31;;;;;;;;;;;;;;;;;;4165271;28;20358;-36
2023/01/12 13:33:33;;;;;;;;;;;;;;;;;;4181541;28;20306;-37
2023/01/12 13:35:34;;;;;;;;;;;;;;;;;;4183673;28;20285;-35
2023/01/12 13:37:35;;;;;;;;;;;;;;;;;;4181370;28;19990;-37
2023/01/12 13:39:36;;;;;;;;;;;;;;;;;;4186539;28;20319;-38
2023/01/12 13:43:58;;;;;;;;;;;;;;;;;;4183552;28;19935;-36
2023/01/12 13:46:00;;;;;;;;;;;;;;;;;;4184770;28;19971;-37
2023/01/12 13:48:01;;;;;;;;;;;;;;;;;;4185197;28;19928;-37
2023/01/12 13:50:02;;;;;;;;;;;;;;;;;;4183827;28;19935;-36
2023/01/12 13:52:05;;;;;;;;;;;;;;;;;;4185183;28;20192;-38
2023/01/12 13:54:10;;;;;;;;;;;;;;;;;;4183951;28;19928;-35
2023/01/12 13:56:17;;;;;;;;;;;;;;;;;;4183458;28;19928;-38
2023/01/12 13:58:19;;;;;;;;;;;;;;;;;;4185080;28;20405;-37
2023/01/12 14:00:22;;;;;;;;;;;;;;;;;;4184287;28;20317;-38
2023/01/12 14:02:24;;;;;;;;;;;;;;;;;;4186510;28;19925;-39
2023/01/12 14:04:39;;;;;;;;;;;;;;;;;;4184211;28;19955;-39
2023/01/12 14:06:58;;;;;;;;;;;;;;;;;;4186212;28;19928;-38
2023/01/12 14:09:00;;;;;;;;;;;;;;;;;;4184692;28;19925;-37
2023/01/12 14:11:13;;;;;;;;;;;;;;;;;;4184320;28;19930;-38
2023/01/12 14:13:32;;;;;;;;;;;;;;;;;;4180360;28;20006;-39
2023/01/12 14:18:03;;;;;;;;;;;;;;;;;;4179999;28;19924;-35
2023/01/12 14:20:12;;;;;;;;;;;;;;;;;;4187611;28;19977;-37
2023/01/12 14:22:16;;;;;;;;;;;;;;;;;;4184816;28;20304;-36
2023/01/12 14:24:22;;;;;;;;;;;;;;;;;;4178974;28;20697;-37
2023/01/12 14:26:24;;;;;;;;;;;;;;;;;;4181993;28;19928;-38
2023/01/12 14:28:25;;;;;;;;;;;;;;;;;;4185235;28;19924;-38
2023/01/12 14:30:27;;;;;;;;;;;;;;;;;;4184379;28;19929;-39
2023/01/12 14:32:27;;;;;;;;;;;;;;;;;;4184090;28;20597;-38
2023/01/12 14:34:31;;;;;;;;;;;;;;;;;;4182860;28;20025;-35
2023/01/12 14:36:32;;;;;;;;;;;;;;;;;;4182155;28;19986;-39
2023/01/12 14:38:34;;;;;;;;;;;;;;;;;;4177910;28;19936;-40
2023/01/12 14:40:35;;;;;;;;;;;;;;;;;;4182582;28;19924;-38
2023/01/12 14:47:25;;;;;;;;;;;;;;;;;;4184074;28;20001;-34
2023/01/12 14:49:28;;;;;;;;;;;;;;;;;;4184471;28;20607;-38
2023/01/12 14:51:38;;;;;;;;;;;;;;;;;;4185966;28;19924;-38
2023/01/12 14:53:39;;;;;;;;;;;;;;;;;;4181210;28;19931;-38
2023/01/12 14:55:41;;;;;;;;;;;;;;;;;;4201566;28;19932;-38